createdAt,value
2022-12-14T00:03:02.469Z,0
2022-12-14T00:08:20.079Z,0
2022-12-14T00:13:37.424Z,0
2022-12-14T00:18:54.859Z,0
2022-12-14T00:29:29.583Z,0
2022-12-14T00:34:47.369Z,0
2022-12-14T00:40:04.603Z,0
2022-12-14T00:45:21.773Z,0
2022-12-14T00:50:39.011Z,0
2022-12-14T00:55:56.377Z,0
2022-12-14T01:01:16.364Z,0
2022-12-14T01:06:33.808Z,0
2022-12-14T01:11:51.163Z,0
2022-12-14T01:17:08.519Z,0
2022-12-14T01:22:28.035Z,0
2022-12-14T01:27:45.191Z,0
2022-12-14T01:33:02.342Z,0
2022-12-14T01:38:19.528Z,0
2022-12-14T01:48:53.915Z,0
2022-12-14T01:54:17.232Z,0
2022-12-14T01:59:34.516Z,0
2022-12-14T02:04:51.711Z,0
2022-12-14T02:10:09.045Z,0
2022-12-14T02:15:26.525Z,0
2022-12-14T02:20:43.831Z,0
2022-12-14T02:26:01.048Z,0
2022-12-14T02:31:18.338Z,0
2022-12-14T02:36:35.997Z,0
2022-12-14T02:41:53.085Z,0
2022-12-14T02:47:10.631Z,0
2022-12-14T02:52:27.903Z,0
2022-12-14T02:57:45.283Z,0
2022-12-14T03:13:40.030Z,0
2022-12-14T03:18:57.443Z,0
2022-12-14T03:24:14.812Z,0
2022-12-14T03:29:32.006Z,0
2022-12-14T03:34:49.172Z,0
2022-12-14T03:40:06.501Z,0
2022-12-14T03:45:23.786Z,0
2022-12-14T03:50:43.480Z,0
2022-12-14T03:56:00.934Z,0
2022-12-14T04:01:18.307Z,0
2022-12-14T04:06:35.713Z,0
2022-12-14T04:11:58.056Z,0
2022-12-14T04:17:15.454Z,0
2022-12-14T04:22:32.721Z,0
2022-12-14T04:27:50.016Z,0
2022-12-14T04:33:07.263Z,0
2022-12-14T04:38:24.458Z,0
2022-12-14T04:43:41.697Z,0
2022-12-14T04:48:58.750Z,0
2022-12-14T04:54:16.241Z,0
2022-12-14T04:59:33.445Z,0
2022-12-14T05:04:50.746Z,0
2022-12-14T05:10:07.964Z,0
2022-12-14T05:15:25.172Z,0
2022-12-14T05:20:42.594Z,0
2022-12-14T05:26:00.303Z,0
2022-12-14T05:31:17.577Z,0
2022-12-14T05:36:35.221Z,0
2022-12-14T05:41:58.331Z,0
2022-12-14T05:47:15.548Z,0
2022-12-14T05:52:32.892Z,0
2022-12-14T05:57:50.152Z,0
2022-12-14T06:03:07.607Z,0
2022-12-14T06:08:30.206Z,0
2022-12-14T06:13:47.776Z,0
2022-12-14T06:19:05.105Z,0
2022-12-14T06:24:22.285Z,0
2022-12-14T06:29:39.625Z,0
2022-12-14T06:34:56.975Z,0
2022-12-14T06:40:16.381Z,0
2022-12-14T06:45:33.750Z,0
2022-12-14T06:50:51.086Z,0
2022-12-14T06:56:08.435Z,0
2022-12-14T07:01:26.011Z,0
2022-12-14T07:06:43.529Z,0
2022-12-14T07:12:00.758Z,0.9
2022-12-14T07:17:18.008Z,28.7
2022-12-14T07:22:34.950Z,53.3
2022-12-14T07:27:51.875Z,82.1
2022-12-14T07:33:09.022Z,132.9
2022-12-14T07:38:26.002Z,213.3
2022-12-14T07:49:03.649Z,373.7
2022-12-14T07:54:20.666Z,495
2022-12-14T07:59:51.750Z,725.8
2022-12-14T08:05:13.070Z,1173.3
2022-12-14T08:10:30.151Z,1242.1
2022-12-14T08:15:47.177Z,1406.7
2022-12-14T08:21:04.178Z,1430.4
2022-12-14T08:26:21.190Z,1639.2
2022-12-14T08:31:38.398Z,1626.2
2022-12-14T08:36:55.551Z,1895.8
2022-12-14T08:47:32.324Z,2013.7
2022-12-14T08:52:49.317Z,2682.9
2022-12-14T08:58:06.422Z,2902.9
2022-12-14T09:03:23.573Z,2753.8
2022-12-14T09:08:40.764Z,3013.3
2022-12-14T09:13:57.766Z,3866.7
2022-12-14T09:19:17.493Z,5237.5
2022-12-14T09:24:35.418Z,5783.3
2022-12-14T09:29:52.786Z,5671.7
2022-12-14T09:35:09.721Z,5990
2022-12-14T09:40:26.884Z,5764.6
2022-12-14T09:45:46.599Z,5617.1
2022-12-14T09:51:03.990Z,5259.6
2022-12-14T09:56:19.871Z,4195.8
2022-12-14T10:01:37.186Z,4266.7
2022-12-14T10:06:54.083Z,4461.7
2022-12-14T10:12:11.017Z,3707.1
2022-12-14T10:17:28.091Z,3477.9
2022-12-14T10:22:45.438Z,3825
2022-12-14T10:28:23.405Z,3685.4
2022-12-14T10:33:40.577Z,3738.8
2022-12-14T10:39:03.050Z,3880.4
2022-12-14T10:44:20.439Z,3547.1
2022-12-14T10:49:37.474Z,3389.6
2022-12-14T10:54:54.472Z,3972.1
2022-12-14T11:00:15.655Z,3621.3
2022-12-14T11:05:39.082Z,3233.3
2022-12-14T11:16:15.673Z,3488.8
2022-12-14T11:21:36.189Z,4336.7
2022-12-14T11:26:53.353Z,4783.8
2022-12-14T11:32:11.311Z,6812.5
2022-12-14T11:37:31.533Z,5447.1
2022-12-14T11:42:51.932Z,6427.9
2022-12-14T11:48:09.996Z,5892.5
2022-12-14T11:53:27.391Z,5711.7
2022-12-14T11:58:43.924Z,4185
2022-12-14T12:04:01.231Z,5168.3
2022-12-14T12:09:18.545Z,4933.3
2022-12-14T12:14:35.635Z,4908.3
2022-12-14T12:19:53.107Z,4704.6
2022-12-14T12:25:32.355Z,4708.8
2022-12-14T12:30:52.700Z,4576.7
2022-12-14T12:36:09.833Z,4351.7
2022-12-14T12:41:26.686Z,4220.8
2022-12-14T12:47:15.215Z,4116.2
2022-12-14T12:52:40.578Z,3975
2022-12-14T12:58:07.846Z,3835.4
2022-12-14T13:03:24.914Z,3829.6
2022-12-14T13:08:42.004Z,3753.8
2022-12-14T13:13:59.085Z,3680
2022-12-14T13:19:48.574Z,3558.8
2022-12-14T13:25:17.366Z,3205
2022-12-14T13:30:33.710Z,2647.1
2022-12-14T13:35:49.854Z,2587.5
2022-12-14T13:41:06.443Z,2499.2
2022-12-14T13:46:23.137Z,2422.5
2022-12-14T13:51:43.205Z,2295
2022-12-14T13:57:00.116Z,2199.6
2022-12-14T14:02:20.465Z,2160.4
2022-12-14T14:07:37.543Z,2080.8
2022-12-14T14:13:01.821Z,1993.8
2022-12-14T14:18:19.038Z,1916.7
2022-12-14T14:23:36.117Z,1830.8
2022-12-14T14:28:53.262Z,1745.8
2022-12-14T14:34:10.803Z,1713.3
2022-12-14T14:45:21.936Z,1415.4
2022-12-14T14:50:38.764Z,1333.7
2022-12-14T14:55:58.823Z,1259.6
2022-12-14T15:01:15.703Z,1085.4
2022-12-14T15:06:32.752Z,856.2
2022-12-14T15:11:49.610Z,604.2
2022-12-14T15:17:08.029Z,476.2
2022-12-14T15:22:24.995Z,343.3
2022-12-14T15:27:42.015Z,230.8
2022-12-14T15:32:58.906Z,147.5
2022-12-14T15:43:25.952Z,20
2022-12-14T15:48:43.056Z,22.1
2022-12-14T15:54:02.318Z,0
2022-12-14T16:04:37.277Z,0
2022-12-14T16:09:54.517Z,0
2022-12-14T16:15:11.843Z,0
2022-12-14T16:20:29.289Z,0
2022-12-14T16:25:46.572Z,0
2022-12-14T16:36:24.209Z,0
2022-12-14T16:41:41.420Z,0
2022-12-14T16:46:58.699Z,0
2022-12-14T16:52:15.984Z,0
2022-12-14T16:57:33.277Z,0
2022-12-14T17:02:50.923Z,0
2022-12-14T17:13:29.315Z,0
2022-12-14T17:18:47.031Z,0
2022-12-14T17:24:04.329Z,0
2022-12-14T17:29:24.102Z,0
2022-12-14T17:34:41.416Z,0
2022-12-14T17:39:58.658Z,0
2022-12-14T17:45:16.109Z,0
2022-12-14T17:50:33.526Z,0
2022-12-14T17:55:51.031Z,0
2022-12-14T18:01:15.684Z,0
2022-12-14T18:06:33.317Z,0
2022-12-14T18:12:21.328Z,0
2022-12-14T18:17:57.084Z,0
2022-12-14T18:23:14.531Z,0
2022-12-14T18:28:31.924Z,0
2022-12-14T18:33:49.139Z,0
2022-12-14T18:39:06.537Z,0
2022-12-14T18:44:23.906Z,0
2022-12-14T18:49:41.386Z,0
2022-12-14T19:00:20.613Z,0
2022-12-14T19:05:38.370Z,0
2022-12-14T19:10:55.711Z,0
2022-12-14T19:16:12.868Z,0
2022-12-14T19:22:07.468Z,0
2022-12-14T19:27:44.097Z,0
2022-12-14T19:33:19.099Z,0
2022-12-14T19:38:36.276Z,0
2022-12-14T19:43:53.617Z,0
2022-12-14T19:49:11.162Z,0
2022-12-14T19:54:49.829Z,0
2022-12-14T20:00:07.747Z,0
2022-12-14T20:05:25.167Z,0
2022-12-14T20:10:42.462Z,0
2022-12-14T20:16:02.691Z,0
2022-12-14T20:21:22.035Z,0
2022-12-14T20:26:39.913Z,0
2022-12-14T20:31:57.527Z,0
2022-12-14T20:37:14.979Z,0
2022-12-14T20:42:37.434Z,0
2022-12-14T20:47:55.099Z,0
2022-12-14T20:53:12.391Z,0
2022-12-14T20:58:29.819Z,0
2022-12-14T21:03:47.160Z,0
2022-12-14T21:09:04.696Z,0
2022-12-14T21:14:22.084Z,0
2022-12-14T21:19:39.883Z,0
2022-12-14T21:25:05.941Z,0
2022-12-14T21:30:23.916Z,0
2022-12-14T21:35:48.583Z,0
2022-12-14T21:41:06.080Z,0
2022-12-14T21:46:27.924Z,0
2022-12-14T21:51:46.825Z,0
2022-12-14T21:57:06.779Z,0
2022-12-14T22:02:24.547Z,0
2022-12-14T22:07:42.210Z,0
2022-12-14T22:13:01.646Z,0
2022-12-14T22:23:41.364Z,0
2022-12-14T22:29:00.513Z,0
2022-12-14T22:34:21.536Z,0
2022-12-14T22:39:38.943Z,0
2022-12-14T22:44:59.344Z,0
2022-12-14T22:50:16.822Z,0
2022-12-14T22:55:34.032Z,0
2022-12-14T23:00:53.386Z,0
2022-12-14T23:06:27.779Z,0
2022-12-14T23:11:45.242Z,0
2022-12-14T23:17:02.511Z,0
2022-12-14T23:22:22.247Z,0
2022-12-14T23:27:39.729Z,0
2022-12-14T23:32:56.777Z,0
2022-12-14T23:38:14.021Z,0
2022-12-14T23:43:52.069Z,0
2022-12-14T23:49:15.228Z,0
2022-12-14T23:54:36.148Z,0
2022-12-14T23:59:53.638Z,0
